Time;durP1;ratioP1;P1;durP2;ratioP2;P2;SDS_P1;SDS_P2;PMS_P1;PMS_P2;Temp;Humidity;BMP_temperature;BMP_pressure;BME280_temperature;BME280_humidity;BME280_pressure;Samples;Min_cycle;Max_cycle;Signal;HPM_P1;HPM_P2
2021/01/04 00:00:53;;;;;;;15.13;8.30;;;3.30;99.90;;;;;;5054975;28;20596;-81
2021/01/04 00:03:47;;;;;;;12.87;7.67;;;3.30;99.90;;;;;;5054614;28;20206;-80
2021/01/04 00:06:26;;;;;;;13.10;8.17;;;3.30;99.90;;;;;;5054807;28;20223;-80
2021/01/04 00:09:10;;;;;;;12.80;7.93;;;3.30;99.90;;;;;;5053202;28;20204;-80
2021/01/04 00:11:48;;;;;;;11.73;7.80;;;3.40;99.90;;;;;;5053135;28;20215;-80
2021/01/04 00:14:35;;;;;;;11.33;8.10;;;3.40;99.90;;;;;;5054796;28;20610;-80
2021/01/04 00:17:11;;;;;;;12.13;7.87;;;3.50;99.90;;;;;;5054317;28;20274;-80
2021/01/04 00:19:48;;;;;;;11.13;7.60;;;3.40;99.90;;;;;;5055310;28;20209;-80
2021/01/04 00:22:23;;;;;;;12.90;8.03;;;3.40;99.90;;;;;;5053285;28;20205;-80
2021/01/04 00:24:52;;;;;;;12.10;7.90;;;3.40;99.90;;;;;;5053603;28;20611;-80
2021/01/04 00:27:27;;;;;;;12.97;7.17;;;3.30;99.90;;;;;;5052580;28;20236;-80
2021/01/04 00:29:58;;;;;;;12.60;8.20;;;3.30;99.90;;;;;;5053844;28;20196;-81
2021/01/04 00:32:33;;;;;;;12.63;7.87;;;3.40;99.90;;;;;;5060461;28;20658;-81
2021/01/04 00:35:06;;;;;;;12.53;7.53;;;3.50;99.90;;;;;;5072262;28;20204;-81
2021/01/04 00:38:14;;;;;;;11.87;7.57;;;3.60;99.90;;;;;;5072307;28;20205;-80
2021/01/04 00:40:54;;;;;;;13.83;7.90;;;3.60;99.90;;;;;;5046826;28;20234;-80
2021/01/04 00:43:29;;;;;;;11.13;7.10;;;3.50;99.90;;;;;;5072362;28;20214;-80
2021/01/04 00:45:56;;;;;;;13.37;7.70;;;3.50;99.90;;;;;;5068165;28;20207;-79
2021/01/04 00:48:29;;;;;;;11.73;7.37;;;3.50;99.90;;;;;;5062324;28;20213;-80
2021/01/04 00:51:18;;;;;;;11.13;7.23;;;3.60;99.90;;;;;;5072098;28;20295;-81
2021/01/04 00:53:47;;;;;;;13.67;7.63;;;3.40;99.90;;;;;;5069655;28;20208;-81
2021/01/04 00:56:37;;;;;;;9.70;6.93;;;3.40;99.90;;;;;;5071880;28;20208;-80
2021/01/04 00:59:12;;;;;;;11.87;7.90;;;3.40;99.90;;;;;;5072009;28;20668;-81
2021/01/04 01:02:02;;;;;;;11.10;7.23;;;3.40;99.90;;;;;;5076347;28;20703;-80
2021/01/04 01:04:36;;;;;;;10.83;7.17;;;3.40;99.90;;;;;;5075984;28;20266;-80
2021/01/04 01:07:09;;;;;;;12.37;7.67;;;3.50;99.90;;;;;;5076274;28;20204;-80
2021/01/04 01:09:41;;;;;;;11.47;7.03;;;3.40;99.90;;;;;;5075950;28;20204;-80
2021/01/04 01:12:28;;;;;;;15.93;8.33;;;3.50;99.90;;;;;;5076286;28;20204;-80
2021/01/04 01:15:28;;;;;;;10.90;7.63;;;3.40;99.90;;;;;;5076131;28;20215;-81
2021/01/04 01:18:09;;;;;;;14.37;7.97;;;3.30;99.90;;;;;;5013924;28;20208;-81
2021/01/04 01:20:38;;;;;;;12.17;7.77;;;3.30;99.90;;;;;;5060511;28;20224;-80
2021/01/04 01:23:08;;;;;;;10.77;7.47;;;3.30;99.90;;;;;;5075779;28;20227;-80
2021/01/04 01:25:42;;;;;;;13.97;8.23;;;3.30;99.90;;;;;;5076254;28;20226;-80
2021/01/04 01:28:36;;;;;;;12.00;8.13;;;3.20;99.90;;;;;;5075635;28;20200;-80
2021/01/04 01:31:33;;;;;;;13.60;8.53;;;3.20;99.90;;;;;;5075890;28;20203;-80
2021/01/04 01:34:18;;;;;;;12.57;7.77;;;3.20;99.90;;;;;;5063624;28;20203;-80
2021/01/04 01:37:02;;;;;;;14.67;8.57;;;3.10;99.90;;;;;;5075822;28;20252;-80
2021/01/04 01:40:09;;;;;;;13.17;8.07;;;3.10;99.90;;;;;;5075560;28;20231;-80
2021/01/04 01:43:19;;;;;;;11.67;7.73;;;3.10;99.90;;;;;;5063903;28;20576;-80
2021/01/04 01:45:52;;;;;;;13.30;7.97;;;3.00;99.90;;;;;;5013569;28;20301;-80
2021/01/04 01:48:32;;;;;;;12.53;8.40;;;3.00;99.90;;;;;;5012123;28;20203;-80
2021/01/04 01:51:06;;;;;;;11.40;7.83;;;3.00;99.90;;;;;;5041014;28;20284;-80
2021/01/04 01:53:44;;;;;;;11.93;8.27;;;3.10;99.90;;;;;;5059478;28;20212;-79
2021/01/04 01:56:27;;;;;;;12.63;8.90;;;3.00;99.90;;;;;;5073582;28;20645;-80
2021/01/04 01:59:23;;;;;;;17.40;9.37;;;3.00;99.90;;;;;;5065131;28;20211;-79
2021/01/04 02:01:58;;;;;;;14.27;9.07;;;3.00;99.90;;;;;;5075306;28;20215;-78
2021/01/04 02:04:40;;;;;;;17.63;8.77;;;3.00;99.90;;;;;;5075290;28;20205;-80
2021/01/04 02:07:11;;;;;;;16.23;9.33;;;3.10;99.90;;;;;;5075268;28;20605;-80
2021/01/04 02:09:45;;;;;;;13.03;9.07;;;3.10;99.90;;;;;;5075009;28;20204;-80
2021/01/04 02:12:17;;;;;;;13.90;9.00;;;3.10;99.90;;;;;;5060941;28;20209;-80
2021/01/04 02:14:59;;;;;;;13.47;9.37;;;3.10;99.90;;;;;;5075287;28;20208;-80
2021/01/04 02:17:53;;;;;;;15.80;8.57;;;3.00;99.90;;;;;;5063291;28;20207;-81
2021/01/04 02:20:49;;;;;;;12.27;8.30;;;3.10;99.90;;;;;;5055859;28;20623;-81
2021/01/04 02:23:25;;;;;;;12.77;7.93;;;3.00;99.90;;;;;;5061195;28;20250;-80
2021/01/04 02:25:55;;;;;;;14.30;8.57;;;3.00;99.90;;;;;;5062214;28;20208;-80
2021/01/04 02:28:26;;;;;;;12.67;9.07;;;3.10;99.90;;;;;;5074622;28;20200;-80
2021/01/04 02:30:52;;;;;;;12.93;8.80;;;3.10;99.90;;;;;;5074877;28;20597;-80
2021/01/04 02:33:20;;;;;;;15.67;9.23;;;3.10;99.90;;;;;;5074417;28;20304;-80
2021/01/04 02:35:48;;;;;;;14.70;8.87;;;3.20;99.90;;;;;;5074575;28;20344;-79
2021/01/04 02:38:19;;;;;;;12.07;8.63;;;3.20;99.90;;;;;;5074599;28;20287;-80
2021/01/04 02:40:45;;;;;;;12.07;8.13;;;3.10;99.90;;;;;;5074149;28;20690;-79
2021/01/04 02:43:13;;;;;;;14.47;9.27;;;3.10;99.90;;;;;;5074430;28;20211;-80
2021/01/04 02:45:39;;;;;;;12.30;9.00;;;3.00;99.90;;;;;;5074179;28;20204;-80
2021/01/04 02:48:23;;;;;;;14.73;8.83;;;3.10;99.90;;;;;;5074253;28;20238;-79
2021/01/04 02:51:00;;;;;;;13.23;8.67;;;3.00;99.90;;;;;;5074467;28;20204;-79
2021/01/04 02:53:53;;;;;;;16.67;9.50;;;3.00;99.90;;;;;;5074872;28;20211;-79
2021/01/04 02:56:29;;;;;;;15.00;9.20;;;3.00;99.90;;;;;;5069288;28;20204;-79
2021/01/04 02:59:06;;;;;;;13.80;8.90;;;3.10;99.90;;;;;;5067653;28;20204;-79
2021/01/04 03:01:40;;;;;;;9.57;6.83;;;3.00;99.90;;;;;;5074595;28;20585;-80
2021/01/04 03:04:10;;;;;;;13.73;8.63;;;2.90;99.90;;;;;;5074400;28;20556;-79
2021/01/04 03:06:51;;;;;;;14.33;8.93;;;2.80;99.90;;;;;;5074589;28;20646;-79
2021/01/04 03:09:17;;;;;;;13.70;9.23;;;2.80;99.90;;;;;;5074896;28;20226;-79
2021/01/04 03:11:44;;;;;;;15.80;8.73;;;2.80;99.90;;;;;;5074714;28;20197;-79
2021/01/04 03:14:23;;;;;;;14.43;9.20;;;2.80;99.90;;;;;;5074967;28;20210;-79
2021/01/04 03:16:59;;;;;;;13.10;9.23;;;2.90;99.90;;;;;;5074493;28;20200;-79
2021/01/04 03:19:29;;;;;;;12.43;8.33;;;2.90;99.90;;;;;;5074799;28;20213;-79
2021/01/04 03:21:59;;;;;;;16.07;9.77;;;3.00;99.90;;;;;;5074340;28;20247;-79
2021/01/04 03:24:26;;;;;;;12.73;8.83;;;3.10;99.90;;;;;;5074631;28;20223;-79
2021/01/04 03:26:56;;;;;;;17.23;10.10;;;3.10;99.90;;;;;;5073769;28;20208;-80
2021/01/04 03:29:23;;;;;;;13.20;9.13;;;3.00;99.90;;;;;;5073888;28;20223;-79
2021/01/04 03:31:50;;;;;;;15.00;10.10;;;2.90;99.90;;;;;;5073241;28;20615;-79
2021/01/04 03:34:16;;;;;;;14.97;9.37;;;2.90;99.90;;;;;;5073757;28;20229;-79
2021/01/04 03:36:42;;;;;;;18.57;9.13;;;2.90;99.90;;;;;;5073748;28;20201;-79
2021/01/04 03:39:09;;;;;;;17.40;9.77;;;2.90;99.90;;;;;;5073669;28;20208;-79
2021/01/04 03:41:35;;;;;;;14.17;8.93;;;2.90;99.90;;;;;;5073572;28;20229;-79
2021/01/04 03:44:01;;;;;;;14.43;8.77;;;2.80;99.90;;;;;;5073117;28;20208;-79
2021/01/04 03:46:28;;;;;;;14.00;8.97;;;2.70;99.90;;;;;;5073417;28;20214;-79
2021/01/04 03:48:56;;;;;;;14.73;9.23;;;2.70;99.90;;;;;;5073302;28;20206;-79
2021/01/04 03:51:22;;;;;;;14.13;9.50;;;2.60;99.90;;;;;;5073269;28;20673;-79
2021/01/04 03:53:50;;;;;;;14.57;8.63;;;2.70;99.90;;;;;;5072889;28;20288;-79
2021/01/04 03:56:18;;;;;;;15.37;9.43;;;2.70;99.90;;;;;;5068612;28;20639;-79
2021/01/04 03:58:45;;;;;;;14.30;9.50;;;2.70;99.90;;;;;;5063657;28;20208;-79
2021/01/04 04:01:13;;;;;;;14.53;9.30;;;2.70;99.90;;;;;;5072920;28;20228;-79
2021/01/04 04:03:41;;;;;;;15.37;9.83;;;2.80;99.90;;;;;;5072241;28;20669;-80
2021/01/04 04:06:10;;;;;;;15.70;9.57;;;2.80;99.90;;;;;;5071906;28;20207;-79
2021/01/04 04:08:39;;;;;;;14.40;9.43;;;2.70;99.90;;;;;;5072556;28;20211;-79
2021/01/04 04:11:05;;;;;;;14.03;9.77;;;2.70;99.90;;;;;;5072082;28;20249;-79
2021/01/04 04:13:31;;;;;;;14.80;9.60;;;2.70;99.90;;;;;;5072003;28;20222;-78
2021/01/04 04:15:58;;;;;;;13.20;8.50;;;2.80;99.90;;;;;;5072127;28;20205;-79
2021/01/04 04:18:24;;;;;;;13.97;9.67;;;2.80;99.90;;;;;;5071947;28;20651;-80
2021/01/04 04:20:51;;;;;;;14.80;9.30;;;2.80;99.90;;;;;;5071817;28;20223;-79
2021/01/04 04:23:18;;;;;;;13.47;9.00;;;2.70;99.90;;;;;;5071754;28;20229;-79
2021/01/04 04:25:44;;;;;;;15.00;9.37;;;2.70;99.90;;;;;;5071898;28;20328;-79
2021/01/04 04:28:11;;;;;;;14.57;8.60;;;2.70;99.90;;;;;;5071637;28;20522;-80
2021/01/04 04:30:37;;;;;;;15.30;9.67;;;2.80;99.90;;;;;;5071933;28;20239;-79
2021/01/04 04:33:04;;;;;;;11.37;7.90;;;2.70;99.90;;;;;;5071840;28;20208;-79
2021/01/04 04:35:30;;;;;;;14.07;9.80;;;2.60;99.90;;;;;;5071052;28;20226;-79
2021/01/04 04:37:59;;;;;;;15.07;8.73;;;2.60;99.90;;;;;;5071642;28;20200;-79
2021/01/04 04:40:27;;;;;;;13.37;9.27;;;2.60;99.90;;;;;;5071500;28;20204;-79
2021/01/04 04:42:55;;;;;;;14.47;9.03;;;2.50;99.90;;;;;;5071722;28;20200;-79
2021/01/04 04:45:22;;;;;;;14.50;9.27;;;2.60;99.90;;;;;;5071418;28;20212;-79
2021/01/04 04:48:08;;;;;;;14.57;9.93;;;2.60;99.90;;;;;;5071425;28;20208;-79
2021/01/04 04:50:59;;;;;;;14.50;9.63;;;2.60;99.90;;;;;;5071776;28;20591;-79
2021/01/04 04:53:54;;;;;;;14.97;9.77;;;2.50;99.90;;;;;;5071140;28;20216;-79
2021/01/04 04:56:44;;;;;;;15.13;9.40;;;2.60;99.90;;;;;;5055484;28;20310;-79
2021/01/04 04:59:16;;;;;;;14.00;9.40;;;2.60;99.90;;;;;;5065678;28;20204;-79
2021/01/04 05:01:52;;;;;;;14.63;9.83;;;2.60;99.90;;;;;;5071645;28;20286;-79
2021/01/04 05:04:52;;;;;;;13.30;8.87;;;2.60;99.90;;;;;;5071596;28;20203;-79
2021/01/04 05:07:29;;;;;;;14.03;9.30;;;2.50;99.90;;;;;;5027079;28;20215;-79
2021/01/04 05:09:59;;;;;;;14.40;8.97;;;2.50;99.90;;;;;;5070394;28;20196;-79
2021/01/04 05:12:39;;;;;;;16.97;9.57;;;2.60;99.90;;;;;;5071538;28;20346;-79
2021/01/04 05:15:17;;;;;;;17.30;9.20;;;2.60;99.90;;;;;;5071339;28;20222;-79
2021/01/04 05:18:26;;;;;;;14.17;9.60;;;2.60;99.90;;;;;;5065515;28;20205;-79
2021/01/04 05:21:28;;;;;;;14.87;9.93;;;2.60;99.90;;;;;;5068813;28;20255;-79
2021/01/04 05:24:19;;;;;;;15.73;9.40;;;2.60;99.90;;;;;;5058773;28;20207;-80
2021/01/04 05:27:02;;;;;;;14.53;9.07;;;2.60;99.90;;;;;;5070898;28;20193;-79
2021/01/04 05:29:55;;;;;;;16.90;10.47;;;2.60;99.90;;;;;;5071229;28;20702;-79
2021/01/04 05:32:40;;;;;;;17.17;10.20;;;2.60;99.90;;;;;;5058728;28;20587;-79
2021/01/04 05:35:10;;;;;;;13.53;9.03;;;2.60;99.90;;;;;;5067965;28;20284;-79
2021/01/04 05:38:00;;;;;;;15.73;10.80;;;2.60;99.90;;;;;;5070030;28;20558;-79
2021/01/04 05:40:45;;;;;;;16.10;9.77;;;2.70;99.90;;;;;;5069250;28;20566;-79
2021/01/04 05:43:21;;;;;;;15.87;10.30;;;2.60;99.90;;;;;;5063866;28;20669;-79
2021/01/04 05:45:53;;;;;;;16.80;9.63;;;2.60;99.90;;;;;;5061967;28;20200;-79
2021/01/04 05:48:39;;;;;;;14.80;9.83;;;2.60;99.90;;;;;;5074722;28;20204;-79
2021/01/04 05:51:13;;;;;;;14.87;9.83;;;2.60;99.90;;;;;;5073037;28;20194;-79
2021/01/04 05:53:40;;;;;;;17.77;10.50;;;2.60;99.90;;;;;;5060515;28;20201;-79
2021/01/04 05:56:06;;;;;;;17.07;11.27;;;2.60;99.90;;;;;;5067524;28;20565;-79
2021/01/04 05:58:35;;;;;;;16.13;10.43;;;2.60;99.90;;;;;;5058436;28;20216;-79
2021/01/04 06:01:09;;;;;;;16.37;10.80;;;2.70;99.90;;;;;;5063418;28;20289;-79
2021/01/04 06:03:35;;;;;;;17.43;10.80;;;2.70;99.90;;;;;;5061884;28;20266;-79
2021/01/04 06:06:10;;;;;;;17.47;10.83;;;2.70;99.90;;;;;;5062478;28;20212;-79
2021/01/04 06:08:36;;;;;;;19.30;11.07;;;2.70;99.90;;;;;;5062494;28;20661;-79
2021/01/04 06:11:08;;;;;;;20.20;11.77;;;2.70;99.90;;;;;;5063224;28;20200;-79
2021/01/04 06:13:41;;;;;;;18.40;11.73;;;2.60;99.90;;;;;;5066513;28;20279;-79
2021/01/04 06:16:10;;;;;;;17.60;11.20;;;2.60;99.90;;;;;;5059317;28;20232;-79
2021/01/04 06:18:51;;;;;;;18.93;11.70;;;2.60;99.90;;;;;;5064665;28;20228;-79
2021/01/04 06:21:28;;;;;;;18.57;11.70;;;2.70;99.90;;;;;;5066746;28;20232;-79
2021/01/04 06:24:00;;;;;;;18.73;11.53;;;2.60;99.90;;;;;;5062563;28;20237;-78
2021/01/04 06:26:26;;;;;;;17.50;10.83;;;2.60;99.90;;;;;;5060661;28;20204;-79
2021/01/04 06:28:56;;;;;;;17.97;11.23;;;2.60;99.90;;;;;;5073536;28;20216;-79
2021/01/04 06:31:31;;;;;;;19.50;11.20;;;2.60;99.90;;;;;;5065186;28;20208;-79
2021/01/04 06:34:01;;;;;;;20.33;12.53;;;2.50;99.90;;;;;;5059706;28;20287;-79
2021/01/04 06:36:36;;;;;;;20.67;12.90;;;2.60;99.90;;;;;;5060057;28;20623;-79
2021/01/04 06:39:16;;;;;;;19.77;12.10;;;2.60;99.90;;;;;;5053203;28;20212;-79
2021/01/04 06:41:43;;;;;;;20.00;12.27;;;2.60;99.90;;;;;;5056338;28;20326;-79
2021/01/04 06:44:18;;;;;;;21.87;12.27;;;2.60;99.90;;;;;;5054928;28;20197;-80
2021/01/04 06:47:29;;;;;;;21.13;11.93;;;2.60;99.90;;;;;;5053804;28;20204;-79
2021/01/04 06:50:03;;;;;;;19.63;12.37;;;2.60;99.90;;;;;;5059143;28;20200;-79
2021/01/04 06:53:18;;;;;;;22.00;13.07;;;2.60;99.90;;;;;;5069027;28;20195;-80
2021/01/04 06:56:27;;;;;;;19.17;11.73;;;2.60;99.90;;;;;;5064524;28;20561;-79
2021/01/04 06:59:29;;;;;;;20.60;12.63;;;2.70;99.90;;;;;;5072757;28;20256;-80
2021/01/04 07:02:30;;;;;;;21.30;12.77;;;2.70;99.90;;;;;;5073098;28;20227;-79
2021/01/04 07:05:32;;;;;;;18.80;11.73;;;2.60;99.90;;;;;;5049894;28;20211;-79
2021/01/04 07:08:30;;;;;;;19.33;11.70;;;2.70;99.90;;;;;;5059696;28;20303;-79
2021/01/04 07:11:08;;;;;;;20.93;12.40;;;2.70;99.90;;;;;;5053103;28;20272;-79
2021/01/04 07:13:58;;;;;;;20.20;12.83;;;2.70;99.90;;;;;;5052895;28;20232;-80
2021/01/04 07:16:51;;;;;;;22.07;12.93;;;2.70;99.90;;;;;;5051541;28;20219;-79
2021/01/04 07:19:32;;;;;;;20.70;12.43;;;2.70;99.90;;;;;;5053382;28;20204;-80
2021/01/04 07:22:03;;;;;;;22.77;12.93;;;2.70;99.90;;;;;;5053031;28;20591;-80
2021/01/04 07:24:50;;;;;;;21.53;12.53;;;2.80;99.90;;;;;;5053446;28;20211;-79
2021/01/04 07:27:31;;;;;;;22.13;13.13;;;2.80;99.90;;;;;;5052945;28;20568;-81
2021/01/04 07:30:10;;;;;;;21.50;12.33;;;2.80;99.90;;;;;;5053093;28;20205;-79
2021/01/04 07:32:53;;;;;;;22.67;12.73;;;2.80;99.90;;;;;;5052811;28;20289;-79
2021/01/04 07:35:22;;;;;;;23.40;13.37;;;2.80;99.90;;;;;;5053091;28;20545;-80
2021/01/04 07:37:56;;;;;;;26.10;14.33;;;2.80;99.90;;;;;;5052812;28;20205;-80
2021/01/04 07:40:57;;;;;;;23.93;13.57;;;2.70;99.90;;;;;;5052669;28;20205;-79
2021/01/04 07:43:58;;;;;;;22.57;13.00;;;2.80;99.90;;;;;;5040817;28;20209;-78
2021/01/04 07:47:16;;;;;;;24.37;13.53;;;2.80;99.90;;;;;;5052487;28;20561;-80
2021/01/04 07:50:10;;;;;;;26.27;14.20;;;2.90;99.90;;;;;;5052545;28;20204;-79
2021/01/04 07:53:06;;;;;;;27.70;14.90;;;2.90;99.90;;;;;;5052831;28;20201;-79
2021/01/04 07:56:01;;;;;;;25.77;13.47;;;2.80;99.90;;;;;;5040651;28;20209;-79
2021/01/04 07:59:23;;;;;;;32.67;15.60;;;2.80;99.90;;;;;;5052872;28;20211;-79
2021/01/04 08:02:15;;;;;;;27.77;15.73;;;2.80;99.90;;;;;;5053738;28;20681;-79
2021/01/04 08:05:12;;;;;;;30.07;15.57;;;2.80;99.90;;;;;;5053165;28;20212;-79
2021/01/04 08:07:59;;;;;;;30.53;16.20;;;2.70;99.90;;;;;;5053191;28;20212;-79
2021/01/04 08:11:04;;;;;;;29.67;16.40;;;2.80;99.90;;;;;;5051945;28;20727;-79
2021/01/04 08:13:58;;;;;;;27.63;15.20;;;2.90;99.90;;;;;;5041303;28;20205;-79
2021/01/04 08:16:28;;;;;;;29.20;15.60;;;2.90;99.90;;;;;;5052492;28;20207;-79
2021/01/04 08:18:57;;;;;;;26.20;15.63;;;3.00;99.90;;;;;;5052665;28;20206;-78
2021/01/04 08:21:34;;;;;;;27.83;16.10;;;2.90;99.90;;;;;;5052076;28;20728;-79
2021/01/04 08:24:09;;;;;;;25.67;15.23;;;2.90;99.90;;;;;;5052362;28;20201;-79
2021/01/04 08:26:57;;;;;;;28.53;16.07;;;3.00;99.90;;;;;;5052304;28;20666;-79
2021/01/04 08:29:36;;;;;;;29.73;15.30;;;2.80;99.90;;;;;;5051978;28;20262;-79
2021/01/04 08:32:13;;;;;;;25.20;14.20;;;2.80;99.90;;;;;;5052092;28;20200;-80
2021/01/04 08:34:43;;;;;;;26.90;15.67;;;2.80;99.90;;;;;;5052004;28;20628;-79
2021/01/04 08:37:13;;;;;;;27.17;15.60;;;2.80;99.90;;;;;;5051905;28;20326;-78
2021/01/04 08:39:45;;;;;;;25.97;14.57;;;2.90;99.90;;;;;;5052000;28;20292;-79
2021/01/04 08:42:28;;;;;;;25.93;15.27;;;2.90;99.90;;;;;;5051675;28;20274;-79
2021/01/04 08:44:58;;;;;;;25.73;15.97;;;2.90;99.90;;;;;;5052088;28;20197;-79
2021/01/04 08:47:31;;;;;;;24.93;15.13;;;3.00;99.90;;;;;;5051972;28;20204;-80
2021/01/04 08:50:28;;;;;;;25.50;14.57;;;3.00;99.90;;;;;;5057332;28;20290;-79
2021/01/04 08:52:57;;;;;;;25.40;14.57;;;3.00;99.90;;;;;;5071688;28;20207;-79
2021/01/04 08:55:27;;;;;;;23.47;13.97;;;3.00;99.90;;;;;;5070976;28;20222;-79
2021/01/04 08:57:53;;;;;;;23.57;14.10;;;3.00;99.90;;;;;;5071849;28;20245;-79
2021/01/04 09:00:23;;;;;;;26.27;15.10;;;3.00;99.90;;;;;;5072090;28;20204;-79
2021/01/04 09:02:50;;;;;;;24.60;13.93;;;3.00;99.90;;;;;;5071839;28;20228;-80
2021/01/04 09:05:30;;;;;;;23.43;14.23;;;3.00;99.90;;;;;;5071561;28;20291;-79
2021/01/04 09:07:59;;;;;;;22.07;13.27;;;3.00;99.90;;;;;;5071893;28;20207;-79
2021/01/04 09:10:36;;;;;;;21.47;13.60;;;3.00;99.90;;;;;;5071863;28;20203;-79
2021/01/04 09:13:14;;;;;;;24.47;13.90;;;3.00;99.90;;;;;;5071568;28;20566;-80
2021/01/04 09:15:41;;;;;;;22.77;13.80;;;3.00;99.90;;;;;;5071613;28;20196;-79
2021/01/04 09:18:33;;;;;;;25.93;15.37;;;3.00;99.90;;;;;;5071796;28;20208;-80
2021/01/04 09:21:02;;;;;;;23.73;13.33;;;3.00;99.90;;;;;;5068122;28;20293;-80
2021/01/04 09:23:35;;;;;;;24.03;14.60;;;3.00;99.90;;;;;;5075335;28;20222;-80
2021/01/04 09:26:13;;;;;;;23.10;14.10;;;3.00;99.90;;;;;;5075376;28;20201;-79
2021/01/04 09:28:42;;;;;;;23.90;13.93;;;3.00;99.90;;;;;;5075223;28;20202;-80
2021/01/04 09:31:12;;;;;;;25.60;14.27;;;3.00;99.90;;;;;;5075364;28;20618;-80
2021/01/04 09:33:47;;;;;;;22.73;11.77;;;3.00;99.90;;;;;;5075352;28;20248;-80
2021/01/04 09:36:15;;;;;;;25.43;15.37;;;3.00;99.90;;;;;;5075203;28;20275;-79
2021/01/04 09:38:42;;;;;;;25.67;15.37;;;2.90;99.90;;;;;;5074839;28;20200;-80
2021/01/04 09:41:11;;;;;;;24.63;13.70;;;3.00;99.90;;;;;;5074999;28;20256;-80
2021/01/04 09:43:40;;;;;;;22.90;15.13;;;3.00;99.90;;;;;;5074805;28;20206;-80
2021/01/04 09:46:22;;;;;;;25.53;14.73;;;3.00;99.90;;;;;;5074877;28;20294;-79
2021/01/04 09:48:56;;;;;;;23.80;14.43;;;3.10;99.90;;;;;;5074875;28;20223;-79
2021/01/04 09:51:31;;;;;;;24.43;14.10;;;3.00;99.90;;;;;;5074857;28;20204;-80
2021/01/04 09:54:02;;;;;;;23.13;14.70;;;3.10;99.90;;;;;;5075069;28;20196;-81
2021/01/04 09:56:32;;;;;;;24.30;13.53;;;3.10;99.90;;;;;;5074902;28;20566;-80
2021/01/04 09:59:05;;;;;;;22.73;13.83;;;3.10;99.90;;;;;;5074910;28;20207;-79
2021/01/04 10:01:41;;;;;;;22.47;14.50;;;3.00;99.90;;;;;;5074571;28;20670;-80
2021/01/04 10:04:08;;;;;;;26.33;14.50;;;3.00;99.90;;;;;;5074737;28;20200;-80
2021/01/04 10:06:36;;;;;;;22.47;13.97;;;3.00;99.90;;;;;;5074527;28;20211;-79
2021/01/04 10:09:18;;;;;;;22.10;13.73;;;3.20;99.90;;;;;;5074545;28;20718;-80
2021/01/04 10:11:47;;;;;;;22.53;13.80;;;3.10;99.90;;;;;;5074306;28;20208;-80
2021/01/04 10:14:16;;;;;;;22.47;13.53;;;3.20;99.90;;;;;;5074634;28;20201;-81
2021/01/04 10:16:48;;;;;;;23.53;14.80;;;3.10;99.90;;;;;;5074260;28;20674;-81
2021/01/04 10:19:20;;;;;;;25.23;14.90;;;3.10;99.90;;;;;;5074132;28;20632;-80
2021/01/04 10:21:54;;;;;;;23.27;13.93;;;3.10;99.90;;;;;;5074226;28;20284;-80
2021/01/04 10:24:25;;;;;;;25.07;15.00;;;3.20;99.90;;;;;;5074124;28;20200;-80
2021/01/04 10:26:53;;;;;;;27.10;15.10;;;3.30;99.90;;;;;;5074118;28;20227;-81
2021/01/04 10:29:23;;;;;;;26.50;15.40;;;3.30;99.90;;;;;;5074454;28;20204;-80
2021/01/04 10:31:51;;;;;;;24.27;14.77;;;3.40;99.90;;;;;;5073738;28;20200;-81
2021/01/04 10:34:20;;;;;;;24.73;14.57;;;3.40;99.90;;;;;;5073806;28;20218;-78
2021/01/04 10:36:58;;;;;;;25.27;14.47;;;3.30;99.90;;;;;;5074120;28;20232;-80
2021/01/04 10:39:32;;;;;;;24.73;14.77;;;3.30;99.90;;;;;;5074300;28;20218;-80
2021/01/04 10:42:06;;;;;;;23.53;14.77;;;3.30;99.90;;;;;;5074015;28;20232;-79
2021/01/04 10:44:33;;;;;;;24.90;14.87;;;3.40;99.90;;;;;;5073926;28;20196;-81
2021/01/04 10:47:09;;;;;;;26.50;15.63;;;3.30;99.90;;;;;;5073981;28;20717;-79
2021/01/04 10:49:36;;;;;;;24.60;14.23;;;3.30;99.90;;;;;;5073893;28;20524;-80
2021/01/04 10:52:04;;;;;;;25.83;15.47;;;3.30;99.90;;;;;;5073799;28;20583;-78
2021/01/04 10:54:39;;;;;;;24.37;15.30;;;3.30;99.90;;;;;;5073910;28;20288;-80
2021/01/04 10:57:22;;;;;;;26.50;15.67;;;3.40;99.90;;;;;;5073559;28;20202;-80
2021/01/04 10:59:58;;;;;;;26.33;15.20;;;3.40;99.90;;;;;;5073818;28;20205;-80
2021/01/04 11:02:25;;;;;;;26.27;14.80;;;3.40;99.90;;;;;;5073864;28;20229;-80
2021/01/04 11:04:53;;;;;;;25.57;14.73;;;3.40;99.90;;;;;;5073793;28;20208;-80
2021/01/04 11:07:28;;;;;;;24.13;14.47;;;3.40;99.90;;;;;;5073389;28;20273;-80
2021/01/04 11:09:55;;;;;;;23.33;15.03;;;3.50;99.90;;;;;;5073461;28;20200;-80
2021/01/04 11:12:23;;;;;;;22.50;14.13;;;3.60;99.90;;;;;;5073132;28;20201;-80
2021/01/04 11:14:58;;;;;;;21.23;14.00;;;3.50;99.90;;;;;;5073377;28;20315;-80
2021/01/04 11:17:28;;;;;;;22.83;13.77;;;3.60;99.90;;;;;;5073489;28;20199;-80
2021/01/04 11:20:03;;;;;;;22.93;13.60;;;3.70;99.90;;;;;;5073134;28;20209;-80
2021/01/04 11:22:30;;;;;;;24.23;14.50;;;3.60;99.90;;;;;;5073092;28;20301;-80
2021/01/04 11:24:57;;;;;;;22.67;14.60;;;3.70;99.90;;;;;;5072988;28;20221;-80
2021/01/04 11:27:24;;;;;;;24.63;15.23;;;3.70;99.90;;;;;;5073021;28;20553;-79
2021/01/04 11:29:51;;;;;;;23.60;15.00;;;3.70;99.90;;;;;;5073050;28;20200;-79
2021/01/04 11:32:19;;;;;;;24.50;14.23;;;3.80;99.90;;;;;;5073276;28;20197;-80
2021/01/04 11:34:48;;;;;;;22.47;14.10;;;3.70;99.90;;;;;;5072872;28;20212;-80
2021/01/04 11:37:15;;;;;;;23.80;14.53;;;3.60;99.90;;;;;;5072857;28;20209;-79
2021/01/04 11:39:41;;;;;;;21.80;14.07;;;3.70;99.90;;;;;;5072893;28;20207;-80
2021/01/04 11:42:10;;;;;;;24.30;14.83;;;3.70;99.90;;;;;;5072581;28;20224;-80
2021/01/04 11:44:37;;;;;;;20.70;13.33;;;3.90;99.90;;;;;;5072672;28;20196;-79
2021/01/04 11:47:04;;;;;;;21.10;13.70;;;3.80;99.90;;;;;;5072976;28;20228;-79
2021/01/04 11:49:31;;;;;;;21.90;13.73;;;3.80;99.90;;;;;;5072872;28;20197;-80
2021/01/04 11:51:57;;;;;;;20.63;13.60;;;3.80;99.90;;;;;;5072464;28;20346;-80
2021/01/04 11:54:24;;;;;;;24.27;13.67;;;3.80;99.90;;;;;;5072582;28;20209;-80
2021/01/04 11:56:51;;;;;;;26.33;14.87;;;3.80;99.90;;;;;;5072566;28;20613;-80
2021/01/04 11:59:18;;;;;;;24.37;14.17;;;3.70;99.90;;;;;;5072699;28;20281;-81
2021/01/04 12:01:45;;;;;;;24.57;15.67;;;3.70;99.90;;;;;;5072406;28;20247;-79
2021/01/04 12:04:12;;;;;;;23.70;14.70;;;3.70;99.90;;;;;;5072415;28;20206;-79
2021/01/04 12:06:39;;;;;;;23.47;15.10;;;3.70;99.90;;;;;;5072142;28;20198;-80
2021/01/04 12:09:08;;;;;;;24.27;14.83;;;3.60;99.90;;;;;;5072226;28;20200;-80
2021/01/04 12:11:36;;;;;;;25.43;15.53;;;3.60;99.90;;;;;;5072207;28;20200;-79
2021/01/04 12:14:03;;;;;;;25.90;15.73;;;3.70;99.90;;;;;;5054214;28;20218;-79
2021/01/04 12:16:34;;;;;;;26.13;16.10;;;3.60;99.90;;;;;;5059526;28;20597;-80
2021/01/04 12:19:00;;;;;;;26.13;15.57;;;3.70;99.90;;;;;;5051771;28;20215;-80
2021/01/04 12:21:27;;;;;;;24.43;15.30;;;3.60;99.90;;;;;;5051467;28;20186;-79
2021/01/04 12:23:53;;;;;;;25.30;15.10;;;3.50;99.90;;;;;;5051673;28;20834;-80
2021/01/04 12:26:22;;;;;;;25.20;15.33;;;3.60;99.90;;;;;;5051448;28;20198;-79
2021/01/04 12:28:48;;;;;;;24.77;14.77;;;3.60;99.90;;;;;;5053749;28;20205;-80
2021/01/04 12:31:16;;;;;;;25.37;15.27;;;3.50;99.90;;;;;;5068860;28;20192;-80
2021/01/04 12:33:43;;;;;;;25.63;15.53;;;3.60;99.90;;;;;;5072168;28;20204;-79
2021/01/04 12:36:15;;;;;;;24.73;15.00;;;3.60;99.90;;;;;;5071994;28;20205;-80
2021/01/04 12:38:42;;;;;;;24.77;14.03;;;3.50;99.90;;;;;;5069202;28;20222;-79
2021/01/04 12:41:08;;;;;;;23.57;14.30;;;3.60;99.90;;;;;;5051408;28;20303;-80
2021/01/04 12:43:34;;;;;;;25.97;15.83;;;3.60;99.90;;;;;;5053733;28;20217;-80
2021/01/04 12:46:03;;;;;;;24.83;14.63;;;3.70;99.90;;;;;;5051640;28;20637;-80
2021/01/04 12:48:30;;;;;;;25.37;15.10;;;3.60;99.90;;;;;;5052083;28;20342;-80
2021/01/04 12:50:57;;;;;;;25.20;15.03;;;3.50;99.90;;;;;;5052032;28;20229;-80
2021/01/04 12:53:24;;;;;;;24.90;14.43;;;3.60;99.90;;;;;;5068068;28;20207;-79
2021/01/04 12:55:50;;;;;;;26.23;15.00;;;3.50;99.90;;;;;;5070996;28;20208;-81
2021/01/04 12:58:17;;;;;;;25.27;14.63;;;3.60;99.90;;;;;;5071483;28;20207;-80
2021/01/04 13:00:44;;;;;;;23.97;15.13;;;3.50;99.90;;;;;;5071776;28;20337;-80
2021/01/04 13:03:11;;;;;;;24.77;14.70;;;3.40;99.90;;;;;;5071594;28;20235;-80
2021/01/04 13:05:37;;;;;;;22.70;14.33;;;3.40;99.90;;;;;;5071700;28;20313;-79
2021/01/04 13:08:05;;;;;;;23.00;14.87;;;3.30;99.90;;;;;;5071619;28;20210;-80
2021/01/04 13:10:31;;;;;;;24.73;14.67;;;3.30;99.90;;;;;;5071964;28;20247;-79
2021/01/04 13:12:58;;;;;;;23.43;13.97;;;3.40;99.90;;;;;;5071204;28;20197;-79
2021/01/04 13:15:24;;;;;;;22.00;13.70;;;3.40;99.90;;;;;;5071358;28;20566;-80
2021/01/04 13:17:51;;;;;;;21.00;13.63;;;3.50;99.90;;;;;;5071660;28;20201;-79
2021/01/04 13:20:18;;;;;;;23.13;14.37;;;3.50;99.90;;;;;;5071925;28;20212;-80
2021/01/04 13:22:44;;;;;;;19.87;13.27;;;3.50;99.90;;;;;;5071944;28;20236;-80